Time;durP1;ratioP1;P1;durP2;ratioP2;P2;SDS_P1;SDS_P2;PMS_P1;PMS_P2;Temp;Humidity;BMP_temperature;BMP_pressure;BME280_temperature;BME280_humidity;BME280_pressure;Samples;Min_cycle;Max_cycle;Signal;HPM_P1;HPM_P2
2023/07/01 00:01:20;;;;;;;14.20;13.80;;;19.70;1.00;;;;;;4848893;29;20444;-83
2023/07/01 00:03:49;;;;;;;14.10;13.70;;;19.70;1.00;;;;;;4853980;29;20453;-84
2023/07/01 00:06:19;;;;;;;14.80;14.30;;;19.70;1.00;;;;;;4848769;29;20506;-82
2023/07/01 00:08:48;;;;;;;13.93;13.53;;;19.60;1.00;;;;;;4850422;29;20460;-81
2023/07/01 00:11:16;;;;;;;15.40;14.70;;;19.60;1.00;;;;;;4853124;29;20461;-80
2023/07/01 00:13:45;;;;;;;14.70;14.20;;;19.60;1.00;;;;;;4850529;29;20504;-82
2023/07/01 00:16:14;;;;;;;14.97;14.37;;;19.60;1.00;;;;;;4852287;29;20453;-82
2023/07/01 00:18:45;;;;;;;14.10;13.60;;;19.50;1.00;;;;;;4857294;29;20822;-81
2023/07/01 00:21:14;;;;;;;14.70;14.20;;;19.50;1.00;;;;;;4855643;29;20716;-83
2023/07/01 00:23:42;;;;;;;14.33;13.93;;;19.40;1.00;;;;;;4856237;29;21025;-83
2023/07/01 00:26:18;;;;;;;14.10;13.60;;;19.40;1.00;;;;;;4855887;29;20469;-83
2023/07/01 00:28:46;;;;;;;14.17;13.70;;;19.40;1.00;;;;;;4855110;29;20558;-79
2023/07/01 00:31:16;;;;;;;14.97;14.20;;;19.30;1.00;;;;;;4846180;29;20454;-79
2023/07/01 00:33:44;;;;;;;14.70;14.20;;;19.40;1.00;;;;;;4850375;29;20485;-82
2023/07/01 00:36:12;;;;;;;13.93;13.43;;;19.30;1.00;;;;;;4847523;29;20474;-81
2023/07/01 00:38:40;;;;;;;14.33;13.90;;;19.30;1.00;;;;;;4848870;29;20549;-81
2023/07/01 00:41:08;;;;;;;14.83;14.13;;;19.30;1.00;;;;;;4851444;29;20468;-82
2023/07/01 00:43:36;;;;;;;14.53;14.13;;;19.30;1.00;;;;;;4851215;29;20468;-81
2023/07/01 00:46:05;;;;;;;15.17;14.53;;;19.30;1.00;;;;;;4851400;29;20788;-83
2023/07/01 00:48:34;;;;;;;14.80;14.27;;;19.20;1.00;;;;;;4848602;29;20464;-82
2023/07/01 00:51:03;;;;;;;15.27;14.50;;;19.30;1.00;;;;;;4848432;29;20524;-82
2023/07/01 00:53:31;;;;;;;14.27;13.77;;;19.20;1.00;;;;;;4857217;29;20524;-85
2023/07/01 00:55:59;;;;;;;14.00;13.53;;;19.20;1.00;;;;;;4852142;29;20555;-83
2023/07/01 00:58:28;;;;;;;14.40;14.00;;;19.20;1.00;;;;;;4854422;29;20464;-81
2023/07/01 01:00:57;;;;;;;13.73;13.33;;;19.20;1.00;;;;;;4850524;29;20453;-80
2023/07/01 01:03:33;;;;;;;14.53;13.93;;;19.10;1.00;;;;;;4856692;29;20467;-81
2023/07/01 01:06:09;;;;;;;14.00;13.60;;;19.00;1.00;;;;;;4855040;29;20970;-81
2023/07/01 01:08:44;;;;;;;13.80;13.30;;;19.00;1.00;;;;;;4856718;29;20975;-83
2023/07/01 01:11:15;;;;;;;14.47;13.87;;;18.90;1.00;;;;;;4853533;29;20541;-85
2023/07/01 01:13:44;;;;;;;14.00;13.50;;;19.00;1.00;;;;;;4849932;29;20512;-82
2023/07/01 01:16:13;;;;;;;13.33;12.90;;;18.90;1.00;;;;;;4850541;29;20978;-82
2023/07/01 01:18:44;;;;;;;13.80;13.40;;;18.90;1.00;;;;;;4853930;29;20519;-83
2023/07/01 01:21:18;;;;;;;13.70;13.30;;;18.90;1.00;;;;;;4852603;29;20499;-80
2023/07/01 01:23:54;;;;;;;14.00;13.50;;;18.80;1.00;;;;;;4851035;29;20460;-82
2023/07/01 01:26:23;;;;;;;15.13;14.57;;;18.90;1.00;;;;;;4849416;29;20456;-80
2023/07/01 01:28:53;;;;;;;14.23;13.53;;;18.90;1.00;;;;;;4850924;29;20464;-81
2023/07/01 01:31:22;;;;;;;14.40;13.90;;;18.80;1.00;;;;;;4852460;29;20483;-83
2023/07/01 01:33:50;;;;;;;14.63;14.13;;;18.80;1.00;;;;;;4852262;29;20487;-82
2023/07/01 01:36:26;;;;;;;14.33;13.70;;;18.70;1.00;;;;;;4852597;29;20537;-82
2023/07/01 01:38:57;;;;;;;14.30;13.80;;;18.70;1.00;;;;;;4851850;29;21449;-83
2023/07/01 01:41:29;;;;;;;14.00;13.50;;;18.70;1.00;;;;;;4851303;29;20981;-84
2023/07/01 01:44:03;;;;;;;13.37;12.97;;;18.70;1.00;;;;;;4851063;29;20485;-84
2023/07/01 01:46:32;;;;;;;14.27;13.80;;;18.70;1.00;;;;;;4851215;29;20490;-83
2023/07/01 01:49:03;;;;;;;13.63;13.23;;;18.70;1.00;;;;;;4852119;29;20459;-82
2023/07/01 01:51:33;;;;;;;14.33;13.80;;;18.70;1.00;;;;;;4854263;29;20460;-83
2023/07/01 01:54:05;;;;;;;14.20;13.80;;;18.60;1.00;;;;;;4850641;29;20573;-83
2023/07/01 01:56:34;;;;;;;14.43;13.93;;;18.60;1.00;;;;;;4850896;29;20500;-83
2023/07/01 01:59:04;;;;;;;14.20;13.60;;;18.60;1.00;;;;;;4849980;29;20477;-84
2023/07/01 02:01:32;;;;;;;14.80;14.20;;;18.50;1.00;;;;;;4852309;29;20959;-83
2023/07/01 02:04:00;;;;;;;14.40;13.90;;;18.50;1.00;;;;;;4852083;29;20494;-84
2023/07/01 02:06:29;;;;;;;14.77;14.23;;;18.50;1.00;;;;;;4849794;29;20477;-84
2023/07/01 02:08:57;;;;;;;14.33;13.80;;;18.50;1.00;;;;;;4853397;29;20484;-82
2023/07/01 02:11:25;;;;;;;15.10;14.40;;;18.40;1.00;;;;;;4852978;29;20457;-83
2023/07/01 02:13:53;;;;;;;14.90;14.27;;;18.40;1.00;;;;;;4850719;29;20524;-79
2023/07/01 02:16:23;;;;;;;14.57;14.07;;;18.30;1.00;;;;;;4848561;29;20453;-81
2023/07/01 02:18:51;;;;;;;15.10;14.50;;;18.30;1.00;;;;;;4849676;29;20548;-78
2023/07/01 02:21:19;;;;;;;14.43;13.93;;;18.20;1.00;;;;;;4847170;29;20544;-80
2023/07/01 02:23:47;;;;;;;15.17;14.67;;;18.20;17.20;;;;;;4850804;29;20556;-83
2023/07/01 02:26:15;;;;;;;14.93;14.43;;;18.10;47.70;;;;;;4850814;29;20461;-81
2023/07/01 02:28:43;;;;;;;16.00;15.30;;;18.10;59.60;;;;;;4852451;29;20459;-80
2023/07/01 02:31:16;;;;;;;15.13;14.43;;;18.10;60.80;;;;;;4854639;29;20896;-83
2023/07/01 02:33:45;;;;;;;14.50;14.10;;;18.10;28.40;;;;;;4868261;29;20725;-81
2023/07/01 02:36:13;;;;;;;14.97;14.40;;;18.10;56.70;;;;;;4850022;29;21189;-84
2023/07/01 02:38:42;;;;;;;15.00;14.40;;;18.10;68.20;;;;;;4854380;29;20464;-84
2023/07/01 02:41:10;;;;;;;15.40;14.80;;;18.00;91.60;;;;;;4851344;29;20461;-83
2023/07/01 02:43:38;;;;;;;15.50;14.90;;;18.00;59.80;;;;;;4852464;29;20473;-81
2023/07/01 02:46:06;;;;;;;14.97;14.47;;;18.00;99.90;;;;;;4855269;29;20460;-81
2023/07/01 02:48:34;;;;;;;15.30;14.60;;;18.00;99.90;;;;;;4854995;29;20464;-82
2023/07/01 02:51:04;;;;;;;15.13;14.53;;;18.00;99.90;;;;;;4855399;29;20464;-82
2023/07/01 02:53:32;;;;;;;15.20;14.70;;;18.00;67.80;;;;;;4856179;29;20461;-83
2023/07/01 02:56:02;;;;;;;15.00;14.50;;;17.90;99.90;;;;;;4851098;29;20504;-83
2023/07/01 02:58:30;;;;;;;15.80;15.20;;;17.90;99.90;;;;;;4857575;29;20492;-83
2023/07/01 03:00:58;;;;;;;15.03;14.50;;;17.80;99.90;;;;;;4857181;29;20472;-82
2023/07/01 03:03:26;;;;;;;15.10;14.50;;;17.80;99.90;;;;;;4854379;29;20488;-83
2023/07/01 03:05:55;;;;;;;15.43;14.87;;;17.80;99.90;;;;;;4855407;29;20972;-84
2023/07/01 03:08:24;;;;;;;15.03;14.43;;;17.80;99.90;;;;;;4855281;29;20493;-83
2023/07/01 03:10:52;;;;;;;15.03;14.47;;;17.90;99.90;;;;;;4855572;29;20473;-82
2023/07/01 03:13:20;;;;;;;15.63;14.87;;;18.00;84.80;;;;;;4856600;29;20517;-83
2023/07/01 03:15:49;;;;;;;14.50;14.03;;;18.00;33.40;;;;;;4853475;29;20481;-84
2023/07/01 03:18:17;;;;;;;15.67;14.80;;;18.00;68.50;;;;;;4854751;29;20530;-82
2023/07/01 03:20:45;;;;;;;15.10;14.60;;;18.10;56.90;;;;;;4853128;29;20460;-80
2023/07/01 03:23:14;;;;;;;15.47;14.87;;;18.10;1.00;;;;;;4853373;29;20966;-78
2023/07/01 03:25:43;;;;;;;15.50;14.80;;;18.10;1.00;;;;;;4852128;29;20658;-80
2023/07/01 03:28:11;;;;;;;14.80;14.20;;;18.00;4.60;;;;;;4854837;29;20476;-80
2023/07/01 03:30:39;;;;;;;15.60;14.90;;;17.90;25.00;;;;;;4855364;29;20608;-81
2023/07/01 03:33:08;;;;;;;16.00;15.30;;;17.90;89.60;;;;;;4855073;29;20495;-82
2023/07/01 03:35:36;;;;;;;15.90;15.10;;;17.90;59.10;;;;;;4856046;29;20496;-81
2023/07/01 03:38:05;;;;;;;15.00;14.40;;;17.90;38.10;;;;;;4857265;29;20489;-84
2023/07/01 03:40:33;;;;;;;14.87;14.37;;;18.00;92.50;;;;;;4855826;29;20464;-82
2023/07/01 03:43:02;;;;;;;15.50;15.00;;;18.00;10.10;;;;;;4854658;29;20835;-80
2023/07/01 03:45:31;;;;;;;15.07;14.50;;;17.90;28.00;;;;;;4854000;29;20456;-82
2023/07/01 03:47:59;;;;;;;15.10;14.67;;;17.90;81.20;;;;;;4854955;29;20480;-80
2023/07/01 03:50:27;;;;;;;14.70;14.30;;;17.90;55.90;;;;;;4848819;29;20461;-80
2023/07/01 03:52:55;;;;;;;15.57;14.80;;;18.00;66.30;;;;;;4851791;29;20469;-80
2023/07/01 03:55:23;;;;;;;15.87;15.27;;;18.00;41.40;;;;;;4853885;29;20477;-81
2023/07/01 03:57:51;;;;;;;15.10;14.50;;;18.00;35.80;;;;;;4850193;29;20481;-80
2023/07/01 04:00:21;;;;;;;16.50;15.80;;;18.00;25.60;;;;;;4850923;29;20468;-80
2023/07/01 04:02:51;;;;;;;15.60;14.90;;;18.00;6.20;;;;;;4847386;29;20460;-78
2023/07/01 04:05:20;;;;;;;15.83;15.20;;;18.00;1.00;;;;;;4855705;29;20477;-82
2023/07/01 04:07:49;;;;;;;15.73;15.03;;;18.10;1.00;;;;;;4856287;29;20574;-82
2023/07/01 04:10:17;;;;;;;15.63;15.10;;;18.00;1.00;;;;;;4853465;29;20588;-82
2023/07/01 04:12:45;;;;;;;16.73;16.03;;;18.00;6.30;;;;;;4853321;29;21045;-80
2023/07/01 04:15:13;;;;;;;16.33;15.70;;;17.90;6.40;;;;;;4853868;29;21115;-80
2023/07/01 04:17:44;;;;;;;15.90;15.37;;;18.00;28.30;;;;;;4855256;29;20487;-80
2023/07/01 04:20:14;;;;;;;15.73;15.23;;;18.00;20.10;;;;;;4845124;29;20472;-82
2023/07/01 04:22:43;;;;;;;17.30;16.17;;;18.00;21.10;;;;;;4851402;29;20996;-82
2023/07/01 04:25:11;;;;;;;16.70;15.93;;;18.00;31.60;;;;;;4854071;29;20471;-81
2023/07/01 04:27:42;;;;;;;16.20;15.50;;;18.00;18.80;;;;;;4855015;29;20484;-81
2023/07/01 04:30:12;;;;;;;15.53;15.00;;;18.00;41.10;;;;;;4852949;29;20529;-80
2023/07/01 04:32:40;;;;;;;15.70;15.10;;;18.00;27.50;;;;;;4852029;29;20830;-82
2023/07/01 04:35:10;;;;;;;15.83;15.23;;;17.90;36.40;;;;;;4849454;29;20472;-81
2023/07/01 04:37:38;;;;;;;16.30;15.57;;;17.90;93.90;;;;;;4847596;29;20480;-81
2023/07/01 04:40:09;;;;;;;15.67;15.17;;;17.90;99.90;;;;;;4848430;29;20543;-82
2023/07/01 04:42:44;;;;;;;16.50;15.90;;;17.90;99.90;;;;;;4847981;29;21015;-81
2023/07/01 04:45:13;;;;;;;16.93;16.10;;;18.00;99.90;;;;;;4850332;29;20553;-80
2023/07/01 04:47:41;;;;;;;17.00;16.30;;;18.00;99.90;;;;;;4851961;29;20472;-81
2023/07/01 04:50:11;;;;;;;16.47;15.87;;;18.00;99.90;;;;;;4848922;29;20472;-82
2023/07/01 04:52:39;;;;;;;17.30;16.40;;;18.10;73.90;;;;;;4851200;29;20643;-81
2023/07/01 04:55:08;;;;;;;16.20;15.60;;;18.00;59.10;;;;;;4854358;29;20478;-82
2023/07/01 04:57:36;;;;;;;16.47;15.77;;;18.10;98.80;;;;;;4848791;29;20548;-80
2023/07/01 05:00:09;;;;;;;16.83;15.93;;;18.10;53.80;;;;;;4852253;29;20540;-81
2023/07/01 05:02:38;;;;;;;15.83;15.23;;;18.10;41.20;;;;;;4848152;29;20488;-82
2023/07/01 05:05:07;;;;;;;16.50;15.80;;;18.10;22.00;;;;;;4850832;29;20507;-81
2023/07/01 05:07:37;;;;;;;15.83;15.10;;;18.10;39.30;;;;;;4853382;29;20484;-79
2023/07/01 05:10:06;;;;;;;16.17;15.57;;;18.20;13.70;;;;;;4851641;29;20512;-81
2023/07/01 05:12:34;;;;;;;16.53;15.93;;;18.20;3.20;;;;;;4852109;29;20492;-82
2023/07/01 05:15:02;;;;;;;15.90;15.20;;;18.20;1.00;;;;;;4853713;29;20474;-81
2023/07/01 05:17:30;;;;;;;16.87;16.07;;;18.20;1.00;;;;;;4850095;29;21018;-81
2023/07/01 05:19:58;;;;;;;15.57;15.07;;;18.30;1.00;;;;;;4850751;29;20457;-82
2023/07/01 05:22:27;;;;;;;16.13;15.53;;;18.20;1.00;;;;;;4851598;29;20495;-82
2023/07/01 05:24:56;;;;;;;16.00;15.30;;;18.30;1.00;;;;;;4852859;29;20468;-84
2023/07/01 05:27:24;;;;;;;17.03;16.43;;;18.40;1.00;;;;;;4851164;29;20497;-83
2023/07/01 05:29:53;;;;;;;15.60;15.10;;;18.30;1.00;;;;;;4853109;29;20486;-80
2023/07/01 05:32:21;;;;;;;15.47;14.97;;;18.30;1.00;;;;;;4847689;29;20984;-82
2023/07/01 05:34:49;;;;;;;15.30;14.70;;;18.40;1.00;;;;;;4851310;29;21107;-81
2023/07/01 05:37:17;;;;;;;16.53;15.83;;;18.40;1.00;;;;;;4851610;29;20492;-84
2023/07/01 05:39:45;;;;;;;16.90;16.30;;;18.50;1.00;;;;;;4849066;29;21014;-82
2023/07/01 05:42:15;;;;;;;15.80;15.10;;;18.50;1.00;;;;;;4847781;29;20453;-81
2023/07/01 05:44:43;;;;;;;16.03;15.37;;;18.50;1.00;;;;;;4852555;29;20700;-82
2023/07/01 05:47:11;;;;;;;16.17;15.57;;;18.60;1.00;;;;;;4847090;29;20479;-82
2023/07/01 05:49:39;;;;;;;16.07;15.20;;;18.50;1.00;;;;;;4843561;29;20472;-79
2023/07/01 05:52:08;;;;;;;16.27;15.63;;;18.60;1.00;;;;;;4842188;29;20483;-81
2023/07/01 05:54:36;;;;;;;16.20;15.30;;;18.70;1.00;;;;;;4846371;29;20468;-79
2023/07/01 05:57:07;;;;;;;15.80;15.20;;;18.70;1.00;;;;;;4849599;29;20512;-81
2023/07/01 05:59:51;;;;;;;16.20;15.63;;;18.80;1.00;;;;;;4850405;29;20460;-81
2023/07/01 06:02:33;;;;;;;15.50;15.00;;;18.80;1.00;;;;;;4846571;29;20565;-78
2023/07/01 06:05:26;;;;;;;16.40;15.60;;;18.80;1.00;;;;;;4847357;29;20461;-79
2023/07/01 06:08:48;;;;;;;15.90;15.40;;;18.90;1.00;;;;;;4851069;29;20489;-81
2023/07/01 06:11:30;;;;;;;17.07;16.30;;;18.90;1.00;;;;;;4847072;29;20460;-83
2023/07/01 06:14:15;;;;;;;15.80;15.27;;;19.00;1.00;;;;;;4850637;29;20464;-80
2023/07/01 06:17:11;;;;;;;16.40;15.70;;;19.00;1.00;;;;;;4852570;29;20510;-84
2023/07/01 06:19:58;;;;;;;15.83;15.33;;;19.10;1.00;;;;;;4852350;29;20997;-81
2023/07/01 06:22:34;;;;;;;15.67;15.07;;;19.10;1.00;;;;;;4850634;29;20465;-82
2023/07/01 06:25:02;;;;;;;15.63;15.10;;;19.20;1.00;;;;;;4850260;29;20464;-82
2023/07/01 06:27:46;;;;;;;15.37;14.87;;;19.10;99.90;;;;;;4847820;29;21125;-81
2023/07/01 06:30:15;;;;;;;15.10;14.50;;;19.20;99.90;;;;;;4852623;29;21193;-80
2023/07/01 06:32:52;;;;;;;15.97;15.27;;;19.20;99.90;;;;;;4852828;29;20452;-81
2023/07/01 06:36:17;;;;;;;15.23;14.67;;;19.20;99.90;;;;;;4853699;29;20472;-83
2023/07/01 06:38:48;;;;;;;14.87;14.37;;;19.30;99.90;;;;;;4847928;29;20495;-81
2023/07/01 06:41:16;;;;;;;14.83;14.33;;;19.20;99.90;;;;;;4848003;29;20471;-78
2023/07/01 06:43:45;;;;;;;14.80;14.40;;;19.30;99.90;;;;;;4852109;29;20465;-76
2023/07/01 06:46:13;;;;;;;14.63;14.13;;;19.40;99.90;;;;;;4851178;29;20469;-80
2023/07/01 06:48:43;;;;;;;15.47;14.87;;;19.40;99.90;;;;;;4847641;29;20536;-76
2023/07/01 06:51:11;;;;;;;15.80;15.17;;;19.30;99.90;;;;;;4861203;29;20487;-76
2023/07/01 06:53:39;;;;;;;15.43;14.70;;;19.40;99.90;;;;;;4853358;29;20503;-81
2023/07/01 06:56:08;;;;;;;15.30;14.80;;;19.50;99.90;;;;;;4846798;29;20465;-75
2023/07/01 06:58:36;;;;;;;15.73;15.00;;;19.50;99.90;;;;;;4850208;29;21034;-77
2023/07/01 07:01:04;;;;;;;14.50;14.03;;;19.60;99.90;;;;;;4841217;29;20793;-80
2023/07/01 07:03:33;;;;;;;14.30;13.90;;;19.60;99.90;;;;;;4834634;29;20457;-76
2023/07/01 07:06:03;;;;;;;14.53;14.07;;;19.70;99.90;;;;;;4839126;29;20564;-77
2023/07/01 07:08:31;;;;;;;14.87;14.30;;;19.70;99.90;;;;;;4848588;29;20473;-78
2023/07/01 07:10:59;;;;;;;14.20;13.70;;;19.80;99.90;;;;;;4848451;29;20477;-78
2023/07/01 07:13:27;;;;;;;13.93;13.33;;;19.90;99.90;;;;;;4847544;29;20483;-82
2023/07/01 07:15:56;;;;;;;14.27;13.77;;;20.00;99.90;;;;;;4846523;29;20528;-79
2023/07/01 07:18:24;;;;;;;15.37;14.57;;;20.10;99.90;;;;;;4846564;29;20874;-80
2023/07/01 07:21:02;;;;;;;14.73;14.23;;;20.10;99.90;;;;;;4848576;29;20740;-78
2023/07/01 07:23:33;;;;;;;14.23;13.83;;;20.10;99.90;;;;;;4846281;29;20503;-80
2023/07/01 07:26:01;;;;;;;14.70;14.03;;;20.20;99.90;;;;;;4844710;29;20583;-79
2023/07/01 07:28:32;;;;;;;14.40;14.00;;;20.20;99.90;;;;;;4849417;29;21140;-77
2023/07/01 07:31:01;;;;;;;13.93;13.53;;;20.30;99.90;;;;;;4852693;29;20547;-81
2023/07/01 07:33:32;;;;;;;15.00;14.20;;;20.30;99.90;;;;;;4855893;29;21046;-77
2023/07/01 07:36:00;;;;;;;13.70;13.40;;;20.40;99.90;;;;;;4856894;29;20471;-77
2023/07/01 07:38:29;;;;;;;15.20;14.60;;;20.40;99.90;;;;;;4853085;29;20487;-79
2023/07/01 07:40:58;;;;;;;14.93;14.30;;;20.40;99.90;;;;;;4851579;29;20844;-79
2023/07/01 07:43:26;;;;;;;14.73;14.03;;;20.50;99.90;;;;;;4848394;29;20453;-81
2023/07/01 07:45:54;;;;;;;14.90;14.13;;;20.60;99.90;;;;;;4840058;29;20778;-79
2023/07/01 07:48:23;;;;;;;15.73;15.03;;;20.60;99.90;;;;;;4848941;29;20486;-79
2023/07/01 07:51:00;;;;;;;15.07;14.40;;;20.60;99.90;;;;;;4855464;29;20889;-87
2023/07/01 07:53:32;;;;;;;14.80;14.10;;;20.70;99.90;;;;;;4854995;29;20527;-81
2023/07/01 07:56:01;;;;;;;14.53;14.03;;;20.80;99.90;;;;;;4855128;29;20978;-82
2023/07/01 07:58:47;;;;;;;14.50;14.00;;;20.80;99.90;;;;;;4912636;23;20490;-81
2023/07/01 08:01:40;;;;;;;14.60;14.10;;;20.90;99.90;;;;;;4894561;29;20458;-81
2023/07/01 08:04:13;;;;;;;14.80;14.30;;;20.80;99.90;;;;;;4897108;29;20979;-82
2023/07/01 08:07:03;;;;;;;;;;;;;;;;;;;;;
2023/07/01 08:10:00;;;;;;;13.30;12.90;;;20.80;99.90;;;;;;4885586;29;20488;-83
2023/07/01 08:12:40;;;;;;;13.98;13.40;;;20.90;99.90;;;;;;4888606;29;20504;-86
2023/07/01 08:15:26;;;;;;;14.13;13.53;;;20.90;99.90;;;;;;4884975;29;20211;-83
2023/07/01 08:17:57;;;;;;;14.80;14.20;;;21.00;99.90;;;;;;4889927;29;20479;-82
2023/07/01 08:20:58;;;;;;;15.40;14.80;;;21.10;99.90;;;;;;4890540;29;20470;-84
2023/07/01 08:23:35;;;;;;;14.47;13.97;;;21.20;99.90;;;;;;4882588;29;20481;-84
2023/07/01 08:26:16;;;;;;;14.38;13.57;;;21.20;99.90;;;;;;4886816;29;20947;-83
2023/07/01 08:28:49;;;;;;;14.50;14.00;;;21.20;99.90;;;;;;4889669;29;20199;-84
2023/07/01 08:31:31;;;;;;;14.80;14.13;;;21.10;99.90;;;;;;4888536;29;20652;-84
2023/07/01 08:34:09;;;;;;;13.90;13.40;;;21.20;99.90;;;;;;4888723;29;20878;-83
2023/07/01 08:36:44;;;;;;;14.40;13.90;;;21.30;99.90;;;;;;4891787;29;20486;-82
2023/07/01 08:39:35;;;;;;;13.40;13.00;;;21.30;99.90;;;;;;4888809;29;20526;-83
2023/07/01 08:42:33;;;;;;;13.50;13.17;;;21.30;99.90;;;;;;4886003;29;20483;-83
2023/07/01 08:45:25;;;;;;;15.03;14.33;;;21.30;99.90;;;;;;4887852;29;20459;-84
2023/07/01 08:48:35;;;;;;;13.30;12.90;;;21.40;99.90;;;;;;4889473;29;20823;-82
2023/07/01 08:51:19;;;;;;;12.87;12.50;;;21.50;99.90;;;;;;4878918;29;20481;-83
2023/07/01 08:54:07;;;;;;;13.00;12.40;;;21.50;99.90;;;;;;4888939;29;20462;-81
2023/07/01 08:56:35;;;;;;;12.60;12.20;;;21.50;99.90;;;;;;4881823;29;20479;-85
2023/07/01 08:59:03;;;;;;;13.57;12.97;;;21.60;99.90;;;;;;4886620;29;21019;-83
2023/07/01 09:01:33;;;;;;;12.10;11.70;;;21.50;99.90;;;;;;4888747;29;20466;-82
2023/07/01 09:04:02;;;;;;;11.97;11.57;;;21.40;99.90;;;;;;4882456;29;20515;-82
2023/07/01 09:06:45;;;;;;;11.90;11.60;;;21.50;99.90;;;;;;4889450;23;20501;-82
2023/07/01 09:09:22;;;;;;;12.10;11.80;;;21.50;99.90;;;;;;4875026;29;20486;-81
2023/07/01 09:11:51;;;;;;;12.03;11.73;;;21.40;99.90;;;;;;4878629;29;20506;-83
2023/07/01 09:14:19;;;;;;;11.43;11.13;;;21.50;99.90;;;;;;4879664;29;20531;-82
2023/07/01 09:16:49;;;;;;;11.20;10.87;;;21.50;99.90;;;;;;4872845;29;20652;-84
2023/07/01 09:19:30;;;;;;;11.83;11.30;;;21.70;99.90;;;;;;4869189;29;20483;-84
2023/07/01 09:22:09;;;;;;;11.47;10.67;;;21.80;99.90;;;;;;4876190;29;20543;-84
2023/07/01 09:24:39;;;;;;;10.82;10.43;;;21.80;99.90;;;;;;4872480;29;20579;-84
2023/07/01 09:27:08;;;;;;;10.90;10.60;;;21.90;99.90;;;;;;4871918;29;20234;-83
2023/07/01 09:29:40;;;;;;;11.50;11.10;;;22.00;99.90;;;;;;4872500;29;20459;-84
2023/07/01 09:32:26;;;;;;;11.43;11.13;;;22.10;99.90;;;;;;4874702;29;20497;-82
2023/07/01 09:34:57;;;;;;;11.73;11.33;;;21.90;99.90;;;;;;4880131;29;20455;-82
2023/07/01 09:37:39;;;;;;;12.40;11.90;;;21.80;99.90;;;;;;4881076;29;20527;-83
2023/07/01 09:40:20;;;;;;;10.90;10.60;;;21.90;99.90;;;;;;4877564;29;21059;-81
2023/07/01 09:42:59;;;;;;;10.53;10.33;;;21.80;99.90;;;;;;4877762;29;20915;-79
2023/07/01 09:45:28;;;;;;;11.50;11.10;;;21.90;99.90;;;;;;4881567;29;20779;-82
2023/07/01 09:47:57;;;;;;;11.03;10.60;;;21.70;99.90;;;;;;4877471;29;20487;-81
2023/07/01 09:50:29;;;;;;;9.97;9.67;;;21.80;99.90;;;;;;4877470;29;20483;-79
2023/07/01 09:52:57;;;;;;;10.03;9.73;;;21.80;99.90;;;;;;4875647;29;20471;-79
2023/07/01 09:55:26;;;;;;;10.80;10.40;;;21.80;99.90;;;;;;4881610;29;20948;-84
2023/07/01 09:57:54;;;;;;;10.73;10.33;;;21.70;99.90;;;;;;4881460;29;20570;-81
2023/07/01 10:00:25;;;;;;;10.90;10.50;;;21.70;99.90;;;;;;4881491;29;20452;-78
2023/07/01 10:02:54;;;;;;;10.50;10.10;;;21.90;99.90;;;;;;4879857;29;20478;-80
2023/07/01 10:05:26;;;;;;;9.70;9.40;;;21.90;99.90;;;;;;4873753;29;20454;-82
2023/07/01 10:07:54;;;;;;;9.97;9.57;;;21.80;99.90;;;;;;4883786;29;20482;-78
2023/07/01 10:10:23;;;;;;;9.93;9.63;;;21.90;99.90;;;;;;4867267;29;20462;-77
2023/07/01 10:12:53;;;;;;;10.10;9.80;;;21.80;99.90;;;;;;4878157;29;20977;-79
2023/07/01 10:15:25;;;;;;;10.37;9.97;;;21.80;99.90;;;;;;4878811;29;20463;-82
2023/07/01 10:17:58;;;;;;;10.20;9.93;;;22.00;99.90;;;;;;4879944;29;20490;-79
2023/07/01 10:20:32;;;;;;;10.32;9.93;;;22.10;99.90;;;;;;4882313;29;20469;-79
2023/07/01 10:23:01;;;;;;;10.23;9.93;;;22.20;99.90;;;;;;4877586;29;20708;-80
2023/07/01 10:25:31;;;;;;;10.37;9.73;;;22.40;99.90;;;;;;4863277;29;20475;-79
2023/07/01 10:28:09;;;;;;;9.60;9.30;;;22.40;99.90;;;;;;4880014;29;20471;-78
2023/07/01 10:31:12;;;;;;;10.20;9.80;;;22.50;99.90;;;;;;4879148;29;20507;-77
2023/07/01 10:33:57;;;;;;;9.47;9.03;;;22.50;99.90;;;;;;4878186;29;21007;-78
2023/07/01 10:36:26;;;;;;;10.70;10.20;;;22.50;99.90;;;;;;4878706;29;20463;-80
2023/07/01 10:39:32;;;;;;;9.90;9.60;;;22.60;99.90;;;;;;4878595;29;20487;-80
2023/07/01 10:42:00;;;;;;;10.32;9.82;;;22.70;99.90;;;;;;4873308;29;20504;-80
2023/07/01 10:44:28;;;;;;;10.70;10.30;;;22.80;99.90;;;;;;4877325;29;20327;-83
2023/07/01 10:47:19;;;;;;;9.60;9.30;;;22.70;99.90;;;;;;4876769;29;20479;-82
2023/07/01 10:50:08;;;;;;;9.73;9.20;;;22.80;99.90;;;;;;4885019;29;20468;-82
2023/07/01 10:53:03;;;;;;;9.97;9.57;;;22.80;99.90;;;;;;4879458;29;20462;-82
2023/07/01 10:55:40;;;;;;;9.60;9.20;;;22.90;99.90;;;;;;4883570;29;20494;-82
2023/07/01 10:58:18;;;;;;;9.70;9.30;;;22.90;99.90;;;;;;4882539;29;20535;-83
2023/07/01 11:00:47;;;;;;;9.90;9.40;;;22.80;99.90;;;;;;4882051;29;20994;-82
2023/07/01 11:03:56;;;;;;;8.80;8.20;;;22.80;99.90;;;;;;4881147;29;20482;-82
2023/07/01 11:06:25;;;;;;;9.20;8.67;;;22.80;99.90;;;;;;4879977;29;20491;-82
2023/07/01 11:08:56;;;;;;;8.97;8.70;;;22.90;99.90;;;;;;4883123;29;21052;-82
2023/07/01 11:11:26;;;;;;;9.10;8.80;;;22.90;99.90;;;;;;4883164;29;20531;-82
2023/07/01 11:14:02;;;;;;;9.60;9.20;;;23.00;99.90;;;;;;4883587;29;20444;-81
2023/07/01 11:16:32;;;;;;;10.30;9.90;;;23.10;99.90;;;;;;4882940;29;20469;-82
2023/07/01 11:19:03;;;;;;;10.30;9.90;;;23.20;99.90;;;;;;4882159;29;20580;-82
2023/07/01 11:21:31;;;;;;;9.60;9.30;;;23.30;99.90;;;;;;4880677;29;20546;-81
2023/07/01 11:24:03;;;;;;;10.13;9.83;;;23.40;99.90;;;;;;4879045;29;20521;-83
2023/07/01 11:26:33;;;;;;;9.80;9.23;;;23.40;99.90;;;;;;4880947;29;20578;-82
2023/07/01 11:29:02;;;;;;;9.63;9.17;;;23.20;99.90;;;;;;4883556;29;20456;-82
2023/07/01 11:31:34;;;;;;;9.50;8.80;;;23.20;99.90;;;;;;4883105;29;20463;-83
2023/07/01 11:34:02;;;;;;;8.50;8.17;;;23.10;99.90;;;;;;4880310;29;20464;-82
2023/07/01 11:36:39;;;;;;;9.30;9.00;;;23.20;99.90;;;;;;4884142;29;21136;-83
2023/07/01 11:39:10;;;;;;;9.30;8.90;;;23.20;99.90;;;;;;4879726;29;20502;-81
2023/07/01 11:41:40;;;;;;;9.50;9.10;;;23.10;99.90;;;;;;4880574;29;20463;-83
2023/07/01 11:44:10;;;;;;;8.80;8.50;;;23.10;99.90;;;;;;4882613;29;20476;-82
2023/07/01 11:46:40;;;;;;;8.60;8.30;;;23.10;99.90;;;;;;4886768;29;20553;-82
2023/07/01 11:49:16;;;;;;;9.40;8.67;;;23.00;99.90;;;;;;4881102;29;20463;-83
2023/07/01 11:51:46;;;;;;;9.53;9.23;;;22.90;99.90;;;;;;4881546;29;20473;-83
2023/07/01 11:54:16;;;;;;;9.73;9.43;;;22.90;99.90;;;;;;4881017;29;20470;-83
2023/07/01 11:56:45;;;;;;;10.27;9.93;;;22.90;99.90;;;;;;4878364;29;20555;-82
2023/07/01 11:59:29;;;;;;;10.60;10.20;;;22.90;99.90;;;;;;4881131;29;20522;-80
2023/07/01 12:01:57;;;;;;;11.17;10.37;;;22.90;99.90;;;;;;4878630;29;20878;-82
2023/07/01 12:04:25;;;;;;;10.70;10.10;;;22.90;99.90;;;;;;4881890;29;20470;-83
2023/07/01 12:07:09;;;;;;;9.97;9.50;;;22.80;99.90;;;;;;4883347;29;20494;-82
2023/07/01 12:09:41;;;;;;;10.83;10.30;;;22.80;99.90;;;;;;4885220;29;20462;-81
2023/07/01 12:12:11;;;;;;;10.17;9.87;;;22.70;99.90;;;;;;4884160;29;20808;-83
2023/07/01 12:14:39;;;;;;;9.77;9.47;;;22.70;99.90;;;;;;4883888;29;21020;-82
2023/07/01 12:17:09;;;;;;;9.33;9.03;;;22.60;99.90;;;;;;4884098;29;21074;-81
2023/07/01 12:19:37;;;;;;;9.53;9.33;;;22.60;99.90;;;;;;4883487;29;21008;-81
2023/07/01 12:22:06;;;;;;;9.80;9.40;;;22.60;99.90;;;;;;4877201;29;20465;-83
2023/07/01 12:24:35;;;;;;;9.27;8.97;;;22.60;99.90;;;;;;4879247;29;20459;-83
2023/07/01 12:27:05;;;;;;;10.13;9.83;;;22.60;99.90;;;;;;4872717;29;20495;-83
2023/07/01 12:29:33;;;;;;;9.90;9.50;;;22.60;99.90;;;;;;4880698;29;20463;-82
2023/07/01 12:32:02;;;;;;;9.87;9.57;;;22.70;99.90;;;;;;4873227;29;20471;-82
2023/07/01 12:34:30;;;;;;;9.50;9.20;;;22.70;99.90;;;;;;4881296;29;20994;-83
2023/07/01 12:36:59;;;;;;;9.77;9.47;;;22.80;99.90;;;;;;4882185;29;20498;-83
2023/07/01 12:39:28;;;;;;;9.77;9.57;;;22.80;99.90;;;;;;4876101;29;20465;-83
2023/07/01 12:41:58;;;;;;;9.73;9.33;;;22.80;99.90;;;;;;4873327;29;20467;-81
2023/07/01 12:44:28;;;;;;;9.67;9.37;;;22.70;99.90;;;;;;4875021;29;20476;-82
2023/07/01 12:46:56;;;;;;;10.03;9.73;;;22.70;99.90;;;;;;4877207;29;20522;-80
2023/07/01 12:49:26;;;;;;;8.90;8.70;;;22.60;99.90;;;;;;4871603;29;20472;-84
2023/07/01 12:51:54;;;;;;;9.10;8.90;;;22.50;99.90;;;;;;4874089;29;20452;-82
2023/07/01 12:54:23;;;;;;;10.60;9.80;;;22.40;99.90;;;;;;4877371;29;21019;-82
2023/07/01 12:56:53;;;;;;;9.82;9.32;;;22.40;99.90;;;;;;4867497;29;21030;-81
2023/07/01 12:59:40;;;;;;;11.07;10.23;;;22.30;99.90;;;;;;4863541;29;20219;-80
2023/07/01 13:02:08;;;;;;;9.10;8.80;;;22.30;99.90;;;;;;4866170;29;20471;-82